sensor_id;sensor_type;location;lat;lon;timestamp;temperature;humidity
11961;DHT22;6040;49.358;11.140;2023-05-16T00:01:08;10.30;99.90
11961;DHT22;6040;49.358;11.140;2023-05-16T00:03:36;10.30;99.90
11961;DHT22;6040;49.358;11.140;2023-05-16T00:06:03;10.30;99.90
11961;DHT22;6040;49.358;11.140;2023-05-16T00:08:30;10.20;99.90
11961;DHT22;6040;49.358;11.140;2023-05-16T00:10:57;10.20;99.90
11961;DHT22;6040;49.358;11.140;2023-05-16T00:13:24;10.20;99.90
11961;DHT22;6040;49.358;11.140;2023-05-16T00:15:50;10.20;99.90
11961;DHT22;6040;49.358;11.140;2023-05-16T00:18:17;10.20;99.90
11961;DHT22;6040;49.358;11.140;2023-05-16T00:20:45;10.10;99.90
11961;DHT22;6040;49.358;11.140;2023-05-16T00:23:12;10.10;99.90
11961;DHT22;6040;49.358;11.140;2023-05-16T00:25:39;11.90;99.90
11961;DHT22;6040;49.358;11.140;2023-05-16T00:28:06;10.20;99.90
11961;DHT22;6040;49.358;11.140;2023-05-16T00:30:33;10.00;99.90
11961;DHT22;6040;49.358;11.140;2023-05-16T00:33:00;10.00;99.90
11961;DHT22;6040;49.358;11.140;2023-05-16T00:35:27;10.00;99.90
11961;DHT22;6040;49.358;11.140;2023-05-16T00:37:55;9.90;99.90
11961;DHT22;6040;49.358;11.140;2023-05-16T00:40:22;9.90;99.90
11961;DHT22;6040;49.358;11.140;2023-05-16T00:42:49;11.30;99.90
11961;DHT22;6040;49.358;11.140;2023-05-16T00:45:16;9.80;99.90
11961;DHT22;6040;49.358;11.140;2023-05-16T00:47:43;9.80;99.90
11961;DHT22;6040;49.358;11.140;2023-05-16T00:50:10;9.70;99.90
11961;DHT22;6040;49.358;11.140;2023-05-16T00:52:37;9.70;99.90
11961;DHT22;6040;49.358;11.140;2023-05-16T00:55:06;9.70;99.90
11961;DHT22;6040;49.358;11.140;2023-05-16T00:57:35;9.70;99.90
11961;DHT22;6040;49.358;11.140;2023-05-16T01:00:03;9.60;99.90
11961;DHT22;6040;49.358;11.140;2023-05-16T01:02:31;9.60;99.90
11961;DHT22;6040;49.358;11.140;2023-05-16T01:05:00;11.50;99.90
11961;DHT22;6040;49.358;11.140;2023-05-16T01:07:28;11.30;99.90
11961;DHT22;6040;49.358;11.140;2023-05-16T01:09:55;9.50;99.90
11961;DHT22;6040;49.358;11.140;2023-05-16T01:12:30;9.40;99.90
11961;DHT22;6040;49.358;11.140;2023-05-16T01:15:04;10.30;99.90
11961;DHT22;6040;49.358;11.140;2023-05-16T01:17:39;9.40;99.90
11961;DHT22;6040;49.358;11.140;2023-05-16T01:20:11;9.40;99.90
11961;DHT22;6040;49.358;11.140;2023-05-16T01:22:51;9.40;99.90
11961;DHT22;6040;49.358;11.140;2023-05-16T01:25:30;9.40;99.90
11961;DHT22;6040;49.358;11.140;2023-05-16T01:27:58;9.30;99.90
11961;DHT22;6040;49.358;11.140;2023-05-16T01:30:31;9.30;99.90
11961;DHT22;6040;49.358;11.140;2023-05-16T01:32:58;9.30;99.90
11961;DHT22;6040;49.358;11.140;2023-05-16T01:35:25;9.30;99.90
11961;DHT22;6040;49.358;11.140;2023-05-16T01:37:57;9.30;99.90
11961;DHT22;6040;49.358;11.140;2023-05-16T01:40:30;9.30;99.90
11961;DHT22;6040;49.358;11.140;2023-05-16T01:43:04;9.30;99.90
11961;DHT22;6040;49.358;11.140;2023-05-16T01:45:34;9.30;99.90
11961;DHT22;6040;49.358;11.140;2023-05-16T01:48:06;9.30;99.90
11961;DHT22;6040;49.358;11.140;2023-05-16T01:50:39;9.20;99.90
11961;DHT22;6040;49.358;11.140;2023-05-16T01:53:13;9.20;99.90
11961;DHT22;6040;49.358;11.140;2023-05-16T01:55:43;9.10;99.90
11961;DHT22;6040;49.358;11.140;2023-05-16T01:58:14;9.10;99.90
11961;DHT22;6040;49.358;11.140;2023-05-16T02:00:41;9.10;99.90
11961;DHT22;6040;49.358;11.140;2023-05-16T02:03:09;9.00;99.90
11961;DHT22;6040;49.358;11.140;2023-05-16T02:05:36;11.00;99.90
11961;DHT22;6040;49.358;11.140;2023-05-16T02:08:03;9.00;99.90
11961;DHT22;6040;49.358;11.140;2023-05-16T02:10:30;9.00;99.90
11961;DHT22;6040;49.358;11.140;2023-05-16T02:12:57;9.00;99.90
11961;DHT22;6040;49.358;11.140;2023-05-16T02:15:25;9.00;99.90
11961;DHT22;6040;49.358;11.140;2023-05-16T02:17:52;8.90;99.90
11961;DHT22;6040;49.358;11.140;2023-05-16T02:20:19;8.90;99.90
11961;DHT22;6040;49.358;11.140;2023-05-16T02:22:45;9.00;99.90
11961;DHT22;6040;49.358;11.140;2023-05-16T02:25:14;11.10;99.90
11961;DHT22;6040;49.358;11.140;2023-05-16T02:27:41;8.90;99.90
11961;DHT22;6040;49.358;11.140;2023-05-16T02:30:09;8.90;99.90
11961;DHT22;6040;49.358;11.140;2023-05-16T02:32:37;8.90;99.90
11961;DHT22;6040;49.358;11.140;2023-05-16T02:35:04;9.00;99.90
11961;DHT22;6040;49.358;11.140;2023-05-16T02:37:31;9.00;99.90
11961;DHT22;6040;49.358;11.140;2023-05-16T02:39:58;9.00;99.90
11961;DHT22;6040;49.358;11.140;2023-05-16T02:42:25;9.00;99.90
11961;DHT22;6040;49.358;11.140;2023-05-16T02:44:53;9.00;99.90
11961;DHT22;6040;49.358;11.140;2023-05-16T02:47:20;9.00;99.90
11961;DHT22;6040;49.358;11.140;2023-05-16T02:49:48;9.00;99.90
11961;DHT22;6040;49.358;11.140;2023-05-16T02:52:16;9.30;99.90
11961;DHT22;6040;49.358;11.140;2023-05-16T02:54:43;11.20;99.90
11961;DHT22;6040;49.358;11.140;2023-05-16T02:57:10;9.50;99.90
11961;DHT22;6040;49.358;11.140;2023-05-16T02:59:37;8.90;99.90
11961;DHT22;6040;49.358;11.140;2023-05-16T03:02:04;8.80;99.90
11961;DHT22;6040;49.358;11.140;2023-05-16T03:04:31;8.70;99.90
11961;DHT22;6040;49.358;11.140;2023-05-16T03:06:59;8.70;99.90
11961;DHT22;6040;49.358;11.140;2023-05-16T03:09:26;8.60;99.90
11961;DHT22;6040;49.358;11.140;2023-05-16T03:11:53;8.60;99.90
11961;DHT22;6040;49.358;11.140;2023-05-16T03:14:20;8.50;99.90
11961;DHT22;6040;49.358;11.140;2023-05-16T03:16:47;10.10;99.90
11961;DHT22;6040;49.358;11.140;2023-05-16T03:19:14;8.60;99.90
11961;DHT22;6040;49.358;11.140;2023-05-16T03:21:40;8.60;99.90
11961;DHT22;6040;49.358;11.140;2023-05-16T03:24:09;8.70;99.90
11961;DHT22;6040;49.358;11.140;2023-05-16T03:26:36;8.80;99.90
11961;DHT22;6040;49.358;11.140;2023-05-16T03:29:03;8.80;99.90
11961;DHT22;6040;49.358;11.140;2023-05-16T03:31:31;8.80;99.90
11961;DHT22;6040;49.358;11.140;2023-05-16T03:33:58;8.80;99.90
11961;DHT22;6040;49.358;11.140;2023-05-16T03:36:25;8.90;99.90
11961;DHT22;6040;49.358;11.140;2023-05-16T03:38:52;9.30;99.90
11961;DHT22;6040;49.358;11.140;2023-05-16T03:41:20;8.90;99.90
11961;DHT22;6040;49.358;11.140;2023-05-16T03:43:47;9.40;99.90
11961;DHT22;6040;49.358;11.140;2023-05-16T03:46:14;8.90;99.90
11961;DHT22;6040;49.358;11.140;2023-05-16T03:48:41;8.90;99.90
11961;DHT22;6040;49.358;11.140;2023-05-16T03:51:08;8.90;99.90
11961;DHT22;6040;49.358;11.140;2023-05-16T03:53:35;8.90;99.90
11961;DHT22;6040;49.358;11.140;2023-05-16T03:56:03;8.90;99.90
11961;DHT22;6040;49.358;11.140;2023-05-16T03:58:31;9.00;99.90
11961;DHT22;6040;49.358;11.140;2023-05-16T04:00:58;9.00;99.90
11961;DHT22;6040;49.358;11.140;2023-05-16T04:03:25;8.90;99.90
11961;DHT22;6040;49.358;11.140;2023-05-16T04:05:53;9.80;99.90
11961;DHT22;6040;49.358;11.140;2023-05-16T04:08:20;8.90;99.90
11961;DHT22;6040;49.358;11.140;2023-05-16T04:10:47;9.00;99.90
11961;DHT22;6040;49.358;11.140;2023-05-16T04:13:14;11.00;99.90
11961;DHT22;6040;49.358;11.140;2023-05-16T04:15:42;9.00;99.90
11961;DHT22;6040;49.358;11.140;2023-05-16T04:18:09;9.10;99.90
11961;DHT22;6040;49.358;11.140;2023-05-16T04:20:36;9.10;99.90
11961;DHT22;6040;49.358;11.140;2023-05-16T04:23:03;9.10;99.90
11961;DHT22;6040;49.358;11.140;2023-05-16T04:25:30;9.40;99.90
11961;DHT22;6040;49.358;11.140;2023-05-16T04:27:57;9.20;99.90
11961;DHT22;6040;49.358;11.140;2023-05-16T04:30:24;9.30;99.90
11961;DHT22;6040;49.358;11.140;2023-05-16T04:32:52;9.30;99.90
11961;DHT22;6040;49.358;11.140;2023-05-16T04:35:19;9.30;99.90
11961;DHT22;6040;49.358;11.140;2023-05-16T04:37:46;9.40;99.90
11961;DHT22;6040;49.358;11.140;2023-05-16T04:40:13;9.40;99.90
11961;DHT22;6040;49.358;11.140;2023-05-16T04:42:40;9.50;99.90
11961;DHT22;6040;49.358;11.140;2023-05-16T04:45:08;9.60;99.90
11961;DHT22;6040;49.358;11.140;2023-05-16T04:47:36;9.60;99.90
11961;DHT22;6040;49.358;11.140;2023-05-16T04:50:06;9.70;99.90
11961;DHT22;6040;49.358;11.140;2023-05-16T04:52:33;9.70;99.90
11961;DHT22;6040;49.358;11.140;2023-05-16T04:55:01;10.20;99.90
11961;DHT22;6040;49.358;11.140;2023-05-16T04:57:28;9.80;99.90
11961;DHT22;6040;49.358;11.140;2023-05-16T04:59:55;9.90;99.90
11961;DHT22;6040;49.358;11.140;2023-05-16T05:02:21;9.90;99.90
11961;DHT22;6040;49.358;11.140;2023-05-16T05:04:49;10.00;99.90
11961;DHT22;6040;49.358;11.140;2023-05-16T05:07:17;10.00;99.90
11961;DHT22;6040;49.358;11.140;2023-05-16T05:09:44;11.90;99.90
11961;DHT22;6040;49.358;11.140;2023-05-16T05:12:11;10.00;99.90
11961;DHT22;6040;49.358;11.140;2023-05-16T05:14:37;10.00;99.90
11961;DHT22;6040;49.358;11.140;2023-05-16T05:17:04;10.10;99.90
11961;DHT22;6040;49.358;11.140;2023-05-16T05:19:31;10.10;99.90
11961;DHT22;6040;49.358;11.140;2023-05-16T05:21:58;10.20;99.90
11961;DHT22;6040;49.358;11.140;2023-05-16T05:24:26;10.30;99.90
11961;DHT22;6040;49.358;11.140;2023-05-16T05:26:53;10.40;99.90
11961;DHT22;6040;49.358;11.140;2023-05-16T05:29:20;10.50;99.90
11961;DHT22;6040;49.358;11.140;2023-05-16T05:31:47;10.60;99.90
11961;DHT22;6040;49.358;11.140;2023-05-16T05:34:14;12.20;99.90
11961;DHT22;6040;49.358;11.140;2023-05-16T05:36:41;10.80;99.90
11961;DHT22;6040;49.358;11.140;2023-05-16T05:39:08;10.90;99.90
11961;DHT22;6040;49.358;11.140;2023-05-16T05:41:37;11.00;99.90
11961;DHT22;6040;49.358;11.140;2023-05-16T05:44:04;11.10;99.90
11961;DHT22;6040;49.358;11.140;2023-05-16T05:46:32;11.30;99.90
11961;DHT22;6040;49.358;11.140;2023-05-16T05:48:59;11.90;99.90
11961;DHT22;6040;49.358;11.140;2023-05-16T05:51:26;12.10;99.90
11961;DHT22;6040;49.358;11.140;2023-05-16T05:53:53;11.80;99.90
11961;DHT22;6040;49.358;11.140;2023-05-16T05:56:20;11.90;99.90
11961;DHT22;6040;49.358;11.140;2023-05-16T05:58:50;13.20;99.90
11961;DHT22;6040;49.358;11.140;2023-05-16T06:01:17;12.40;99.90
11961;DHT22;6040;49.358;11.140;2023-05-16T06:03:45;12.70;99.90
11961;DHT22;6040;49.358;11.140;2023-05-16T06:06:12;13.00;99.90
11961;DHT22;6040;49.358;11.140;2023-05-16T06:08:40;13.20;99.90
11961;DHT22;6040;49.358;11.140;2023-05-16T06:11:07;13.00;99.90
11961;DHT22;6040;49.358;11.140;2023-05-16T06:13:34;13.20;99.90
11961;DHT22;6040;49.358;11.140;2023-05-16T06:16:03;13.00;99.90
11961;DHT22;6040;49.358;11.140;2023-05-16T06:18:30;12.90;99.90
11961;DHT22;6040;49.358;11.140;2023-05-16T06:20:56;12.90;99.90
11961;DHT22;6040;49.358;11.140;2023-05-16T06:23:23;12.90;99.90
11961;DHT22;6040;49.358;11.140;2023-05-16T06:25:50;12.80;99.90
11961;DHT22;6040;49.358;11.140;2023-05-16T06:28:17;12.80;99.90
11961;DHT22;6040;49.358;11.140;2023-05-16T06:30:44;12.90;99.90
11961;DHT22;6040;49.358;11.140;2023-05-16T06:33:13;13.00;99.90
11961;DHT22;6040;49.358;11.140;2023-05-16T06:35:40;13.80;99.90
11961;DHT22;6040;49.358;11.140;2023-05-16T06:38:07;13.80;99.90
11961;DHT22;6040;49.358;11.140;2023-05-16T06:40:34;14.40;99.90
11961;DHT22;6040;49.358;11.140;2023-05-16T06:43:01;14.70;99.90
11961;DHT22;6040;49.358;11.140;2023-05-16T06:45:28;15.20;99.90
11961;DHT22;6040;49.358;11.140;2023-05-16T06:47:55;15.90;99.90
11961;DHT22;6040;49.358;11.140;2023-05-16T06:50:23;17.00;99.90
11961;DHT22;6040;49.358;11.140;2023-05-16T06:52:50;17.50;99.90
11961;DHT22;6040;49.358;11.140;2023-05-16T06:55:17;17.50;99.90
11961;DHT22;6040;49.358;11.140;2023-05-16T06:57:44;17.60;99.90
11961;DHT22;6040;49.358;11.140;2023-05-16T07:00:12;17.30;99.90
11961;DHT22;6040;49.358;11.140;2023-05-16T07:02:39;16.70;99.90
11961;DHT22;6040;49.358;11.140;2023-05-16T07:05:06;16.20;99.90
11961;DHT22;6040;49.358;11.140;2023-05-16T07:07:34;16.10;99.90
11961;DHT22;6040;49.358;11.140;2023-05-16T07:10:01;16.20;99.90
11961;DHT22;6040;49.358;11.140;2023-05-16T07:12:28;16.40;99.90
11961;DHT22;6040;49.358;11.140;2023-05-16T07:14:55;17.10;99.90
11961;DHT22;6040;49.358;11.140;2023-05-16T07:17:22;17.50;99.90
11961;DHT22;6040;49.358;11.140;2023-05-16T07:19:49;18.30;99.90
11961;DHT22;6040;49.358;11.140;2023-05-16T07:22:16;18.50;99.90
11961;DHT22;6040;49.358;11.140;2023-05-16T07:24:44;19.00;99.90
11961;DHT22;6040;49.358;11.140;2023-05-16T07:27:11;19.30;99.90
11961;DHT22;6040;49.358;11.140;2023-05-16T07:29:38;19.70;99.90
11961;DHT22;6040;49.358;11.140;2023-05-16T07:32:05;20.10;99.30
11961;DHT22;6040;49.358;11.140;2023-05-16T07:34:32;20.20;98.10
11961;DHT22;6040;49.358;11.140;2023-05-16T07:36:59;20.30;98.70
11961;DHT22;6040;49.358;11.140;2023-05-16T07:39:26;20.50;98.50
11961;DHT22;6040;49.358;11.140;2023-05-16T07:41:55;20.70;96.70
11961;DHT22;6040;49.358;11.140;2023-05-16T07:44:22;20.40;96.90
11961;DHT22;6040;49.358;11.140;2023-05-16T07:46:48;20.00;97.10
11961;DHT22;6040;49.358;11.140;2023-05-16T07:49:15;19.90;97.00
11961;DHT22;6040;49.358;11.140;2023-05-16T07:51:42;20.40;97.70
11961;DHT22;6040;49.358;11.140;2023-05-16T07:54:09;20.50;97.50
11961;DHT22;6040;49.358;11.140;2023-05-16T07:56:36;20.90;97.40
11961;DHT22;6040;49.358;11.140;2023-05-16T07:59:04;21.10;97.20
11961;DHT22;6040;49.358;11.140;2023-05-16T08:01:31;21.50;96.50
11961;DHT22;6040;49.358;11.140;2023-05-16T08:03:58;21.40;94.30
11961;DHT22;6040;49.358;11.140;2023-05-16T08:06:24;21.70;96.50
11961;DHT22;6040;49.358;11.140;2023-05-16T08:08:52;21.50;95.40
11961;DHT22;6040;49.358;11.140;2023-05-16T08:11:20;21.60;94.80
11961;DHT22;6040;49.358;11.140;2023-05-16T08:13:48;21.30;94.90
11961;DHT22;6040;49.358;11.140;2023-05-16T08:16:16;21.90;94.60
11961;DHT22;6040;49.358;11.140;2023-05-16T08:18:43;21.60;93.50
11961;DHT22;6040;49.358;11.140;2023-05-16T08:21:10;21.50;94.50
11961;DHT22;6040;49.358;11.140;2023-05-16T08:23:38;21.20;94.20
11961;DHT22;6040;49.358;11.140;2023-05-16T08:26:05;21.30;94.90
11961;DHT22;6040;49.358;11.140;2023-05-16T08:28:32;21.30;94.50
11961;DHT22;6040;49.358;11.140;2023-05-16T08:30:59;21.10;94.70
11961;DHT22;6040;49.358;11.140;2023-05-16T08:33:27;20.90;94.20
11961;DHT22;6040;49.358;11.140;2023-05-16T08:38:21;20.30;94.00
11961;DHT22;6040;49.358;11.140;2023-05-16T08:40:48;20.50;95.80
11961;DHT22;6040;49.358;11.140;2023-05-16T08:43:15;20.90;95.60
11961;DHT22;6040;49.358;11.140;2023-05-16T08:45:42;21.50;95.30
11961;DHT22;6040;49.358;11.140;2023-05-16T08:48:09;21.90;95.10
11961;DHT22;6040;49.358;11.140;2023-05-16T08:50:37;22.40;94.20
11961;DHT22;6040;49.358;11.140;2023-05-16T08:53:06;22.90;94.20
11961;DHT22;6040;49.358;11.140;2023-05-16T08:55:34;23.30;92.50
11961;DHT22;6040;49.358;11.140;2023-05-16T08:58:02;23.70;92.20
11961;DHT22;6040;49.358;11.140;2023-05-16T09:00:29;23.40;91.30
11961;DHT22;6040;49.358;11.140;2023-05-16T09:02:56;23.10;90.20
11961;DHT22;6040;49.358;11.140;2023-05-16T09:05:24;23.30;91.90
11961;DHT22;6040;49.358;11.140;2023-05-16T09:07:53;23.50;91.10
11961;DHT22;6040;49.358;11.140;2023-05-16T09:10:20;22.70;90.90
11961;DHT22;6040;49.358;11.140;2023-05-16T09:12:47;22.90;91.40
11961;DHT22;6040;49.358;11.140;2023-05-16T09:15:14;22.60;90.60
11961;DHT22;6040;49.358;11.140;2023-05-16T09:17:44;21.90;90.10
11961;DHT22;6040;49.358;11.140;2023-05-16T09:20:13;21.50;91.10
11961;DHT22;6040;49.358;11.140;2023-05-16T09:22:49;21.50;91.40
11961;DHT22;6040;49.358;11.140;2023-05-16T09:25:19;21.20;91.10
11961;DHT22;6040;49.358;11.140;2023-05-16T09:27:46;21.40;90.90
11961;DHT22;6040;49.358;11.140;2023-05-16T09:30:14;21.50;91.50
11961;DHT22;6040;49.358;11.140;2023-05-16T09:32:42;21.50;91.70
11961;DHT22;6040;49.358;11.140;2023-05-16T09:35:10;21.40;91.50
11961;DHT22;6040;49.358;11.140;2023-05-16T09:37:43;21.30;90.90
11961;DHT22;6040;49.358;11.140;2023-05-16T09:40:11;21.20;92.30
11961;DHT22;6040;49.358;11.140;2023-05-16T09:42:40;20.90;90.90
11961;DHT22;6040;49.358;11.140;2023-05-16T09:45:11;20.50;91.90
11961;DHT22;6040;49.358;11.140;2023-05-16T09:47:38;20.30;92.30
11961;DHT22;6040;49.358;11.140;2023-05-16T09:50:12;20.40;92.40
11961;DHT22;6040;49.358;11.140;2023-05-16T09:52:41;20.40;93.20
11961;DHT22;6040;49.358;11.140;2023-05-16T09:55:09;20.30;93.80
11961;DHT22;6040;49.358;11.140;2023-05-16T09:57:36;20.40;94.40
11961;DHT22;6040;49.358;11.140;2023-05-16T10:00:08;20.50;93.90
11961;DHT22;6040;49.358;11.140;2023-05-16T10:02:37;20.40;94.40
11961;DHT22;6040;49.358;11.140;2023-05-16T10:05:05;20.20;95.40
11961;DHT22;6040;49.358;11.140;2023-05-16T10:07:32;19.60;96.20
11961;DHT22;6040;49.358;11.140;2023-05-16T10:10:00;19.20;97.00
11961;DHT22;6040;49.358;11.140;2023-05-16T10:12:29;19.20;97.00
11961;DHT22;6040;49.358;11.140;2023-05-16T10:17:27;19.00;99.90
11961;DHT22;6040;49.358;11.140;2023-05-16T10:19:57;19.30;97.70
11961;DHT22;6040;49.358;11.140;2023-05-16T10:22:26;19.20;97.20
11961;DHT22;6040;49.358;11.140;2023-05-16T10:24:59;19.40;97.60
11961;DHT22;6040;49.358;11.140;2023-05-16T10:27:30;19.90;97.20
11961;DHT22;6040;49.358;11.140;2023-05-16T10:29:57;20.20;95.60
11961;DHT22;6040;49.358;11.140;2023-05-16T10:32:26;20.30;95.20
11961;DHT22;6040;49.358;11.140;2023-05-16T10:34:54;20.00;95.30
11961;DHT22;6040;49.358;11.140;2023-05-16T10:37:22;19.80;95.20
11961;DHT22;6040;49.358;11.140;2023-05-16T10:39:50;19.50;95.70
11961;DHT22;6040;49.358;11.140;2023-05-16T10:42:17;19.70;96.30
11961;DHT22;6040;49.358;11.140;2023-05-16T10:44:45;19.80;95.70
11961;DHT22;6040;49.358;11.140;2023-05-16T10:47:11;19.40;94.60
11961;DHT22;6040;49.358;11.140;2023-05-16T10:49:42;19.40;95.00
11961;DHT22;6040;49.358;11.140;2023-05-16T10:52:10;19.30;95.40
11961;DHT22;6040;49.358;11.140;2023-05-16T10:54:39;19.40;95.60
11961;DHT22;6040;49.358;11.140;2023-05-16T10:57:09;19.70;95.30
11961;DHT22;6040;49.358;11.140;2023-05-16T10:59:41;19.60;95.00
11961;DHT22;6040;49.358;11.140;2023-05-16T11:02:30;19.90;95.40
11961;DHT22;6040;49.358;11.140;2023-05-16T11:05:00;19.90;94.70
11961;DHT22;6040;49.358;11.140;2023-05-16T11:07:31;20.30;96.60
11961;DHT22;6040;49.358;11.140;2023-05-16T11:10:04;20.70;95.60
11961;DHT22;6040;49.358;11.140;2023-05-16T11:12:42;21.00;93.60
11961;DHT22;6040;49.358;11.140;2023-05-16T11:15:20;21.00;93.50
11961;DHT22;6040;49.358;11.140;2023-05-16T11:17:48;21.40;93.40
11961;DHT22;6040;49.358;11.140;2023-05-16T11:20:28;22.00;92.50
11961;DHT22;6040;49.358;11.140;2023-05-16T11:23:19;22.00;91.90
11961;DHT22;6040;49.358;11.140;2023-05-16T11:25:49;21.80;91.30
11961;DHT22;6040;49.358;11.140;2023-05-16T11:28:17;21.40;91.30
11961;DHT22;6040;49.358;11.140;2023-05-16T11:30:46;21.50;92.10
11961;DHT22;6040;49.358;11.140;2023-05-16T11:33:13;21.20;91.80
11961;DHT22;6040;49.358;11.140;2023-05-16T11:35:42;21.10;91.50
11961;DHT22;6040;49.358;11.140;2023-05-16T11:38:13;21.20;91.30
11961;DHT22;6040;49.358;11.140;2023-05-16T11:40:44;21.20;92.20
11961;DHT22;6040;49.358;11.140;2023-05-16T11:43:17;21.30;91.90
11961;DHT22;6040;49.358;11.140;2023-05-16T11:45:44;21.10;91.60
11961;DHT22;6040;49.358;11.140;2023-05-16T11:48:11;20.90;91.90
11961;DHT22;6040;49.358;11.140;2023-05-16T11:50:38;20.70;92.10
11961;DHT22;6040;49.358;11.140;2023-05-16T11:53:07;20.40;92.50
11961;DHT22;6040;49.358;11.140;2023-05-16T11:55:34;20.40;93.30
11961;DHT22;6040;49.358;11.140;2023-05-16T11:58:01;20.00;92.60
11961;DHT22;6040;49.358;11.140;2023-05-16T12:00:29;20.00;93.90
11961;DHT22;6040;49.358;11.140;2023-05-16T12:03:00;20.10;93.90
11961;DHT22;6040;49.358;11.140;2023-05-16T12:05:28;20.20;93.10
11961;DHT22;6040;49.358;11.140;2023-05-16T12:07:56;20.30;92.20
11961;DHT22;6040;49.358;11.140;2023-05-16T12:10:25;20.40;93.10
11961;DHT22;6040;49.358;11.140;2023-05-16T12:12:52;20.50;92.60
11961;DHT22;6040;49.358;11.140;2023-05-16T12:15:19;20.40;92.10
11961;DHT22;6040;49.358;11.140;2023-05-16T12:17:46;20.80;94.30
11961;DHT22;6040;49.358;11.140;2023-05-16T12:20:14;20.70;91.60
11961;DHT22;6040;49.358;11.140;2023-05-16T12:22:43;20.50;91.70
11961;DHT22;6040;49.358;11.140;2023-05-16T12:25:26;20.40;91.60
11961;DHT22;6040;49.358;11.140;2023-05-16T12:27:53;20.10;92.00
11961;DHT22;6040;49.358;11.140;2023-05-16T12:30:21;19.80;92.30
11961;DHT22;6040;49.358;11.140;2023-05-16T12:32:52;19.80;92.50
11961;DHT22;6040;49.358;11.140;2023-05-16T12:35:20;19.80;92.00
11961;DHT22;6040;49.358;11.140;2023-05-16T12:37:48;19.90;92.70
11961;DHT22;6040;49.358;11.140;2023-05-16T12:40:15;19.90;92.00
11961;DHT22;6040;49.358;11.140;2023-05-16T12:42:44;19.90;91.60
11961;DHT22;6040;49.358;11.140;2023-05-16T12:45:14;19.80;92.40
11961;DHT22;6040;49.358;11.140;2023-05-16T12:47:42;20.00;92.80
11961;DHT22;6040;49.358;11.140;2023-05-16T12:50:10;20.10;92.40
11961;DHT22;6040;49.358;11.140;2023-05-16T12:52:46;20.10;92.30
11961;DHT22;6040;49.358;11.140;2023-05-16T12:55:15;20.00;92.40
11961;DHT22;6040;49.358;11.140;2023-05-16T12:57:43;20.10;93.30
11961;DHT22;6040;49.358;11.140;2023-05-16T13:00:13;20.30;92.60
11961;DHT22;6040;49.358;11.140;2023-05-16T13:02:40;20.30;92.50
11961;DHT22;6040;49.358;11.140;2023-05-16T13:05:07;20.30;92.10
11961;DHT22;6040;49.358;11.140;2023-05-16T13:07:35;20.20;92.00
11961;DHT22;6040;49.358;11.140;2023-05-16T13:10:04;20.30;92.40
11961;DHT22;6040;49.358;11.140;2023-05-16T13:12:32;20.50;92.00
11961;DHT22;6040;49.358;11.140;2023-05-16T13:15:00;20.50;92.30
11961;DHT22;6040;49.358;11.140;2023-05-16T13:17:27;20.40;91.90
11961;DHT22;6040;49.358;11.140;2023-05-16T13:19:54;20.40;92.20
11961;DHT22;6040;49.358;11.140;2023-05-16T13:22:21;20.20;92.10
11961;DHT22;6040;49.358;11.140;2023-05-16T13:24:48;19.90;92.20
11961;DHT22;6040;49.358;11.140;2023-05-16T13:27:15;19.80;92.20
11961;DHT22;6040;49.358;11.140;2023-05-16T13:29:43;19.60;92.10
11961;DHT22;6040;49.358;11.140;2023-05-16T13:32:11;19.50;92.50
11961;DHT22;6040;49.358;11.140;2023-05-16T13:34:38;19.50;92.30
11961;DHT22;6040;49.358;11.140;2023-05-16T13:37:05;19.60;93.50
11961;DHT22;6040;49.358;11.140;2023-05-16T13:39:31;19.60;92.80
11961;DHT22;6040;49.358;11.140;2023-05-16T13:41:58;19.50;92.60
11961;DHT22;6040;49.358;11.140;2023-05-16T13:44:25;19.60;92.80
11961;DHT22;6040;49.358;11.140;2023-05-16T13:46:52;19.30;93.30
11961;DHT22;6040;49.358;11.140;2023-05-16T13:49:20;19.00;92.90
11961;DHT22;6040;49.358;11.140;2023-05-16T13:51:48;18.60;93.10
11961;DHT22;6040;49.358;11.140;2023-05-16T13:54:16;18.60;94.20
11961;DHT22;6040;49.358;11.140;2023-05-16T13:56:43;18.60;94.30
11961;DHT22;6040;49.358;11.140;2023-05-16T13:59:10;18.50;94.00
11961;DHT22;6040;49.358;11.140;2023-05-16T14:01:36;18.60;94.00
11961;DHT22;6040;49.358;11.140;2023-05-16T14:04:04;18.60;93.90
11961;DHT22;6040;49.358;11.140;2023-05-16T14:06:32;18.40;94.10
11961;DHT22;6040;49.358;11.140;2023-05-16T14:08:59;18.40;94.00
11961;DHT22;6040;49.358;11.140;2023-05-16T14:11:26;18.30;94.10
11961;DHT22;6040;49.358;11.140;2023-05-16T14:13:52;18.00;93.80
11961;DHT22;6040;49.358;11.140;2023-05-16T14:16:19;17.80;94.30
11961;DHT22;6040;49.358;11.140;2023-05-16T14:18:46;17.70;94.50
11961;DHT22;6040;49.358;11.140;2023-05-16T14:21:13;17.40;94.70
11961;DHT22;6040;49.358;11.140;2023-05-16T14:23:41;17.30;94.50
11961;DHT22;6040;49.358;11.140;2023-05-16T14:26:08;17.20;94.80
11961;DHT22;6040;49.358;11.140;2023-05-16T14:28:35;17.10;94.80
11961;DHT22;6040;49.358;11.140;2023-05-16T14:31:02;17.10;94.80
11961;DHT22;6040;49.358;11.140;2023-05-16T14:33:29;17.10;94.80
11961;DHT22;6040;49.358;11.140;2023-05-16T14:35:57;17.00;94.80
11961;DHT22;6040;49.358;11.140;2023-05-16T14:38:24;17.00;94.90
11961;DHT22;6040;49.358;11.140;2023-05-16T14:40:52;16.90;95.30
11961;DHT22;6040;49.358;11.140;2023-05-16T14:43:19;16.80;94.90
11961;DHT22;6040;49.358;11.140;2023-05-16T14:45:45;16.60;95.30
11961;DHT22;6040;49.358;11.140;2023-05-16T14:48:12;16.60;95.50
11961;DHT22;6040;49.358;11.140;2023-05-16T14:50:39;16.60;95.30
11961;DHT22;6040;49.358;11.140;2023-05-16T14:53:06;16.50;95.40
11961;DHT22;6040;49.358;11.140;2023-05-16T14:55:33;16.50;95.50
11961;DHT22;6040;49.358;11.140;2023-05-16T14:58:01;16.40;95.20
11961;DHT22;6040;49.358;11.140;2023-05-16T15:00:28;16.20;95.40
11961;DHT22;6040;49.358;11.140;2023-05-16T15:02:56;16.20;96.10
11961;DHT22;6040;49.358;11.140;2023-05-16T15:05:23;16.10;96.00
11961;DHT22;6040;49.358;11.140;2023-05-16T15:07:50;16.00;96.00
11961;DHT22;6040;49.358;11.140;2023-05-16T15:10:17;16.10;96.20
11961;DHT22;6040;49.358;11.140;2023-05-16T15:12:44;16.30;95.90
11961;DHT22;6040;49.358;11.140;2023-05-16T15:15:12;16.40;95.80
11961;DHT22;6040;49.358;11.140;2023-05-16T15:17:40;16.40;95.70
11961;DHT22;6040;49.358;11.140;2023-05-16T15:20:09;16.50;95.50
11961;DHT22;6040;49.358;11.140;2023-05-16T15:22:38;16.40;95.20
11961;DHT22;6040;49.358;11.140;2023-05-16T15:25:05;16.30;95.40
11961;DHT22;6040;49.358;11.140;2023-05-16T15:27:33;16.10;95.40
11961;DHT22;6040;49.358;11.140;2023-05-16T15:29:59;16.00;95.70
11961;DHT22;6040;49.358;11.140;2023-05-16T15:32:28;15.90;95.90
11961;DHT22;6040;49.358;11.140;2023-05-16T15:34:55;15.90;96.10
11961;DHT22;6040;49.358;11.140;2023-05-16T15:37:21;15.90;96.10
11961;DHT22;6040;49.358;11.140;2023-05-16T15:39:48;15.90;96.30
11961;DHT22;6040;49.358;11.140;2023-05-16T15:42:15;16.00;96.20
11961;DHT22;6040;49.358;11.140;2023-05-16T15:44:44;16.10;96.30